Time;durP1;ratioP1;P1;durP2;ratioP2;P2;SDS_P1;SDS_P2;PMS_P1;PMS_P2;Temp;Humidity;BMP_temperature;BMP_pressure;BME280_temperature;BME280_humidity;BME280_pressure;Samples;Min_cycle;Max_cycle;Signal;HPM_P1;HPM_P2
2021/07/30 00:02:11;;;;;;;;;9.00;6.50;;;;;24.82;40.58;100738.53;4992597;28;51056;-57
2021/07/30 00:04:37;;;;;;;;;6.00;6.00;;;;;24.81;40.66;100739.63;4994048;28;51631;-57
2021/07/30 00:07:02;;;;;;;;;9.00;5.75;;;;;24.81;40.56;100727.69;4994480;28;51390;-57
2021/07/30 00:09:27;;;;;;;;;6.25;6.00;;;;;24.80;40.55;100726.00;4997690;28;51994;-57
2021/07/30 00:11:53;;;;;;;;;6.00;5.50;;;;;24.78;40.47;100723.47;4997699;28;51126;-57
2021/07/30 00:14:18;;;;;;;;;7.75;6.00;;;;;24.78;40.61;100729.03;4997263;28;51219;-58
2021/07/30 00:16:43;;;;;;;;;7.50;7.25;;;;;24.77;40.28;100727.34;4997687;28;51289;-57
2021/07/30 00:19:09;;;;;;;;;7.00;6.00;;;;;24.76;40.75;100717.38;4996285;28;53070;-57
2021/07/30 00:21:34;;;;;;;;;6.00;5.00;;;;;24.74;41.02;100727.88;4995900;28;51275;-57
2021/07/30 00:23:59;;;;;;;;;9.00;5.50;;;;;24.74;40.87;100734.25;4997318;28;51189;-57
2021/07/30 00:26:25;;;;;;;;;8.00;5.00;;;;;24.73;40.74;100721.50;4997392;28;51369;-57
2021/07/30 00:28:50;;;;;;;;;6.50;4.25;;;;;24.72;40.61;100722.59;4997976;28;51818;-57
2021/07/30 00:31:15;;;;;;;;;6.00;6.00;;;;;24.71;40.79;100718.13;4996548;28;50948;-57
2021/07/30 00:33:41;;;;;;;;;4.50;4.00;;;;;24.71;40.73;100717.31;4996254;28;51115;-57
2021/07/30 00:36:06;;;;;;;;;9.50;6.75;;;;;24.71;40.97;100709.00;4994396;28;51471;-57
2021/07/30 00:38:31;;;;;;;;;6.25;5.50;;;;;24.69;41.22;100714.75;4993954;28;51113;-57
2021/07/30 00:40:58;;;;;;;;;6.50;4.00;;;;;24.70;40.75;100712.84;4996072;28;51156;-57
2021/07/30 00:43:23;;;;;;;;;5.25;5.25;;;;;24.68;40.84;100709.47;4996207;28;51273;-57
2021/07/30 00:45:53;;;;;;;;;5.75;5.75;;;;;24.67;40.72;100707.81;4996059;28;51277;-57
2021/07/30 00:48:20;;;;;;;;;5.00;5.00;;;;;24.66;40.90;100698.66;4995195;28;51956;-57
2021/07/30 00:50:46;;;;;;;;;6.00;6.00;;;;;24.66;40.80;100703.38;4997548;28;51611;-56
2021/07/30 00:53:12;;;;;;;;;8.00;6.00;;;;;24.66;40.93;100708.91;4996891;28;51096;-55
2021/07/30 00:55:38;;;;;;;;;5.50;4.00;;;;;24.65;41.22;100696.97;4997069;28;50996;-57
2021/07/30 00:58:04;;;;;;;;;6.00;5.75;;;;;24.64;41.08;100700.84;5013934;28;54285;-57
2021/07/30 01:00:30;;;;;;;;;4.00;4.00;;;;;24.63;40.74;100704.72;4996827;28;51109;-57
2021/07/30 01:02:59;;;;;;;;;9.00;5.00;;;;;24.63;40.85;100699.16;4996453;28;51097;-57
2021/07/30 01:05:25;;;;;;;;;7.50;5.00;;;;;24.62;40.74;100691.97;4996779;28;50950;-57
2021/07/30 01:07:50;;;;;;;;;4.75;4.75;;;;;24.61;40.89;100698.59;5001398;28;50975;-57
2021/07/30 01:10:16;;;;;;;;;6.75;5.50;;;;;24.61;40.97;100692.22;4996929;28;50988;-57
2021/07/30 01:12:43;;;;;;;;;5.00;4.00;;;;;24.60;41.20;100687.78;4996664;28;51118;-57
2021/07/30 01:15:09;;;;;;;;;5.25;4.25;;;;;24.58;40.82;100688.00;4996922;28;51198;-57
2021/07/30 01:17:35;;;;;;;;;4.00;4.00;;;;;24.58;41.10;100690.78;4996090;28;51080;-58
2021/07/30 01:20:00;;;;;;;;;5.00;4.00;;;;;24.58;40.78;100696.31;4995871;28;51246;-58
2021/07/30 01:22:45;;;;;;;;;8.25;5.25;;;;;24.58;41.20;100687.16;5000732;28;51047;-58
2021/07/30 01:25:11;;;;;;;;;6.75;4.75;;;;;24.58;41.17;100688.00;5012115;28;51160;-58
2021/07/30 01:27:36;;;;;;;;;5.00;5.00;;;;;24.56;41.22;100687.44;4996240;28;51180;-57
2021/07/30 01:30:02;;;;;;;;;4.00;4.00;;;;;24.56;40.88;100681.03;4996206;28;51093;-57
2021/07/30 01:32:27;;;;;;;;;5.50;5.50;;;;;24.55;41.28;100673.84;4996447;28;51096;-57
2021/07/30 01:34:52;;;;;;;;;5.00;4.00;;;;;24.55;40.95;100673.84;4958849;28;1122484;-58
2021/07/30 01:37:17;;;;;;;;;5.25;4.00;;;;;24.53;41.18;100671.31;4996578;28;57110;-57
2021/07/30 01:39:43;;;;;;;;;5.00;5.00;;;;;24.54;41.36;100661.91;4997158;28;51104;-57
2021/07/30 01:42:08;;;;;;;;;4.75;4.75;;;;;24.53;41.47;100662.19;5003644;28;51213;-57
2021/07/30 01:44:34;;;;;;;;;6.75;6.75;;;;;24.53;41.13;100665.78;4997663;28;50934;-57
2021/07/30 01:46:59;;;;;;;;;6.00;6.00;;;;;24.52;40.91;100666.03;4996884;28;51235;-57
2021/07/30 01:49:24;;;;;;;;;6.75;5.00;;;;;24.52;41.56;100663.28;5006681;28;51063;-57
2021/07/30 01:51:50;;;;;;;;;6.50;3.00;;;;;24.51;41.00;100662.44;4996453;28;55816;-57
2021/07/30 01:54:15;;;;;;;;;5.00;4.75;;;;;24.49;41.24;100661.88;4997163;28;51336;-57
2021/07/30 01:56:44;;;;;;;;;5.75;5.25;;;;;24.48;41.27;100663.75;4996672;28;51212;-57
2021/07/30 01:59:10;;;;;;;;;5.50;5.25;;;;;24.48;41.21;100665.69;4997022;28;51456;-57
2021/07/30 02:01:35;;;;;;;;;7.50;6.25;;;;;24.48;41.05;100668.47;4997101;28;51130;-57
2021/07/30 02:04:01;;;;;;;;;5.75;5.75;;;;;24.46;41.42;100665.94;4998087;28;51153;-57
2021/07/30 02:06:26;;;;;;;;;5.00;5.00;;;;;24.45;41.59;100661.50;4996836;28;51165;-57
2021/07/30 02:08:51;;;;;;;;;5.00;5.00;;;;;24.45;41.13;100667.03;4997989;28;51070;-57
2021/07/30 02:11:16;;;;;;;;;6.50;5.75;;;;;24.45;41.07;100657.91;4996704;28;51196;-57
2021/07/30 02:16:26;;;;;;;;;5.00;4.25;;;;;24.43;41.46;100651.78;4997113;28;51153;-57
2021/07/30 02:18:51;;;;;;;;;9.00;7.00;;;;;24.43;41.27;100646.25;4996246;28;51144;-57
2021/07/30 02:21:17;;;;;;;;;6.50;5.75;;;;;24.43;41.57;100655.38;4994987;28;51100;-57
2021/07/30 02:23:44;;;;;;;;;4.75;4.75;;;;;24.42;41.36;100656.50;4996841;28;51080;-57
2021/07/30 02:26:10;;;;;;;;;4.50;4.50;;;;;24.42;41.45;100655.66;4996147;28;51975;-58
2021/07/30 02:28:35;;;;;;;;;5.25;4.00;;;;;24.41;41.50;100645.66;4996402;28;51048;-58
2021/07/30 02:31:00;;;;;;;;;5.25;5.25;;;;;24.40;41.39;100644.00;4995551;28;50980;-58
2021/07/30 02:33:26;;;;;;;;;6.00;3.75;;;;;24.40;41.28;100653.13;4996578;28;51365;-57
2021/07/30 02:35:51;;;;;;;;;4.50;4.00;;;;;24.39;41.50;100648.69;4995897;28;51728;-58
2021/07/30 02:38:16;;;;;;;;;6.25;5.50;;;;;24.37;41.26;100642.53;4996464;28;51090;-57
2021/07/30 02:40:42;;;;;;;;;5.25;4.00;;;;;24.38;41.58;100640.63;4996799;28;51195;-58
2021/07/30 02:43:07;;;;;;;;;5.25;5.25;;;;;24.37;41.75;100644.47;4996335;28;50881;-58
2021/07/30 02:45:32;;;;;;;;;6.25;5.25;;;;;24.35;41.15;100639.19;4995776;28;66278;-58
2021/07/30 02:47:58;;;;;;;;;6.25;5.75;;;;;24.36;41.63;100640.03;4996167;28;51005;-58
2021/07/30 02:50:23;;;;;;;;;4.75;4.75;;;;;24.35;41.64;100630.06;4995833;28;51502;-58
2021/07/30 02:52:48;;;;;;;;;5.00;5.00;;;;;24.34;41.12;100633.91;4996662;28;50976;-58
2021/07/30 02:55:14;;;;;;;;;6.00;6.00;;;;;24.33;41.47;100629.47;4995934;28;60061;-58
2021/07/30 02:57:39;;;;;;;;;8.50;6.25;;;;;24.32;41.44;100627.81;4996020;28;51148;-58
2021/07/30 03:00:05;;;;;;;;;4.50;4.25;;;;;24.31;41.45;100626.97;4996059;28;51102;-58
2021/07/30 03:02:30;;;;;;;;;8.50;5.50;;;;;24.31;41.34;100624.19;4995943;28;51272;-57
2021/07/30 03:04:56;;;;;;;;;6.00;5.75;;;;;24.30;41.61;100625.25;4995438;28;52444;-58
2021/07/30 03:07:21;;;;;;;;;4.25;4.25;;;;;24.29;41.61;100620.81;4995888;28;51110;-57
2021/07/30 03:09:46;;;;;;;;;7.25;5.00;;;;;24.28;41.41;100613.63;4996085;28;51076;-57
2021/07/30 03:12:12;;;;;;;;;8.50;6.50;;;;;24.26;41.34;100615.78;4996529;28;51485;-58
2021/07/30 03:14:38;;;;;;;;;4.75;4.75;;;;;24.27;41.48;100611.06;4995281;28;51168;-58
2021/07/30 03:17:05;;;;;;;;;4.50;4.50;;;;;24.25;41.67;100618.78;4987237;28;51549;-57
2021/07/30 03:19:31;;;;;;;;;6.00;5.50;;;;;24.25;41.37;100613.25;4995640;28;51121;-58
2021/07/30 03:21:56;;;;;;;;;8.00;6.00;;;;;24.24;41.60;100608.81;4995878;28;50993;-57
2021/07/30 03:24:21;;;;;;;;;3.75;3.75;;;;;24.24;41.42;100606.06;5010588;28;52726;-57
2021/07/30 03:26:47;;;;;;;;;4.50;4.50;;;;;24.23;41.68;100609.91;4995943;28;51173;-57
2021/07/30 03:29:12;;;;;;;;;7.75;6.00;;;;;24.21;41.80;100607.41;4997450;28;51140;-57
2021/07/30 03:31:37;;;;;;;;;5.00;5.00;;;;;24.21;41.40;100603.81;4995726;28;50950;-57
2021/07/30 03:34:02;;;;;;;;;5.00;5.00;;;;;24.21;41.71;100612.94;4994443;28;62355;-58
2021/07/30 03:36:28;;;;;;;;;4.75;4.75;;;;;24.19;41.77;100621.50;4995539;28;50981;-57
2021/07/30 03:38:53;;;;;;;;;6.00;6.00;;;;;24.18;41.97;100617.06;4995712;28;51116;-58
2021/07/30 03:41:19;;;;;;;;;6.50;5.00;;;;;24.18;41.52;100614.28;4995937;28;51399;-57
2021/07/30 03:43:44;;;;;;;;;6.75;5.75;;;;;24.16;41.95;100610.06;4995107;28;51876;-57
2021/07/30 03:46:09;;;;;;;;;3.00;3.00;;;;;24.16;42.02;100610.91;4995575;28;51380;-58
2021/07/30 03:48:36;;;;;;;;;5.00;5.00;;;;;24.14;42.13;100604.78;4997356;28;51028;-57
2021/07/30 03:51:01;;;;;;;;;8.00;6.00;;;;;24.14;41.64;100606.72;4995642;28;51043;-57
2021/07/30 03:53:27;;;;;;;;;5.00;5.00;;;;;24.14;41.60;100610.34;4995174;28;52035;-58
2021/07/30 03:55:52;;;;;;;;;6.00;6.00;;;;;24.13;41.56;100610.59;4995342;28;51128;-57
2021/07/30 03:58:17;;;;;;;;;7.50;5.50;;;;;24.14;41.85;100615.03;4995379;28;51197;-57
2021/07/30 04:00:43;;;;;;;;;5.00;4.00;;;;;24.13;41.55;100608.66;4994784;28;51019;-56
2021/07/30 04:03:08;;;;;;;;;6.25;6.25;;;;;24.13;41.79;100605.06;4994984;28;58070;-57
2021/07/30 04:05:35;;;;;;;;;7.00;6.00;;;;;24.13;41.63;100605.88;4995368;28;51020;-56
2021/07/30 04:08:00;;;;;;;;;5.75;4.50;;;;;24.13;42.13;100605.06;4996384;28;51009;-57
2021/07/30 04:10:26;;;;;;;;;5.00;4.25;;;;;24.13;41.76;100605.88;4995565;28;51112;-56
2021/07/30 04:12:52;;;;;;;;;4.25;4.25;;;;;24.13;41.70;100607.81;4994888;28;51848;-57
2021/07/30 04:15:18;;;;;;;;;5.25;5.25;;;;;24.13;42.11;100605.06;4994826;28;50905;-57
2021/07/30 04:17:43;;;;;;;;;5.25;5.25;;;;;24.11;42.22;100604.47;4994780;28;51548;-57
2021/07/30 04:20:09;;;;;;;;;6.75;5.00;;;;;24.11;42.29;100618.31;4995346;28;51448;-57
2021/07/30 04:22:34;;;;;;;;;6.75;6.00;;;;;24.09;41.92;100610.25;4993836;28;51127;-56
2021/07/30 04:25:00;;;;;;;;;4.25;4.25;;;;;24.09;42.26;100610.25;4994715;28;51040;-57
2021/07/30 04:27:25;;;;;;;;;5.75;5.75;;;;;24.07;41.92;100612.44;4995207;28;51033;-56
2021/07/30 04:29:50;;;;;;;;;5.25;5.25;;;;;24.05;42.13;100611.00;4994978;28;51068;-57
2021/07/30 04:32:16;;;;;;;;;6.25;5.25;;;;;24.05;42.17;100603.53;4994499;28;51852;-56
2021/07/30 04:34:41;;;;;;;;;6.00;5.00;;;;;24.03;41.91;100602.97;4994787;28;51226;-57
2021/07/30 04:37:07;;;;;;;;;5.75;4.00;;;;;24.03;42.05;100608.50;4994630;28;51095;-57
2021/07/30 04:39:34;;;;;;;;;7.00;6.75;;;;;24.03;42.36;100613.19;4994983;28;51139;-57
2021/07/30 04:41:59;;;;;;;;;8.00;5.25;;;;;24.02;42.18;100614.28;4989400;28;51090;-56
2021/07/30 04:44:24;;;;;;;;;5.75;5.25;;;;;24.01;42.22;100616.22;4994431;28;51075;-56
2021/07/30 04:46:50;;;;;;;;;5.00;5.00;;;;;24.00;42.00;100611.78;4994994;28;51049;-58
2021/07/30 04:49:15;;;;;;;;;2.50;2.50;;;;;23.99;42.07;100609.25;4994733;28;50900;-57
2021/07/30 04:51:40;;;;;;;;;6.00;6.00;;;;;23.98;42.40;100611.19;4994381;28;52035;-57
2021/07/30 04:54:06;;;;;;;;;7.75;6.00;;;;;23.97;42.45;100609.50;4994453;28;51084;-56
2021/07/30 04:56:31;;;;;;;;;5.00;4.00;;;;;23.97;42.07;100612.28;4998168;28;50978;-57
2021/07/30 04:58:57;;;;;;;;;4.25;3.75;;;;;23.96;42.52;100616.13;5002702;28;50909;-57
2021/07/30 05:01:22;;;;;;;;;9.00;6.00;;;;;23.96;41.81;100615.28;5004066;28;51045;-57
2021/07/30 05:03:47;;;;;;;;;3.25;3.25;;;;;23.94;42.38;100615.53;4997679;28;51189;-56
2021/07/30 05:06:14;;;;;;;;;3.75;3.25;;;;;23.95;42.56;100616.38;4997800;28;50914;-57
2021/07/30 05:08:39;;;;;;;;;4.75;3.75;;;;;23.93;42.18;100608.31;4998059;28;51340;-56
2021/07/30 05:11:05;;;;;;;;;4.75;4.75;;;;;23.90;41.93;100601.38;4997646;28;51803;-57
2021/07/30 05:13:30;;;;;;;;;6.00;4.00;;;;;23.91;41.90;100599.44;4997528;28;51008;-57
2021/07/30 05:15:56;;;;;;;;;5.00;4.00;;;;;23.91;41.80;100602.22;4997713;28;51205;-57
2021/07/30 05:18:21;;;;;;;;;5.50;3.75;;;;;23.90;42.25;100606.91;4997488;28;51318;-57
2021/07/30 05:20:47;;;;;;;;;4.00;4.00;;;;;23.90;42.08;100608.84;4997837;28;50967;-56
2021/07/30 05:23:12;;;;;;;;;4.50;4.00;;;;;23.88;41.77;100613.78;4997634;28;51107;-57
2021/07/30 05:25:37;;;;;;;;;5.50;4.00;;;;;23.88;41.79;100599.94;4997962;28;51224;-57
2021/07/30 05:28:04;;;;;;;;;3.50;3.50;;;;;23.87;41.89;100607.41;4997506;28;51128;-57
2021/07/30 05:30:29;;;;;;;;;6.00;4.00;;;;;23.86;41.70;100616.81;5003864;28;51067;-57
2021/07/30 05:32:54;;;;;;;;;4.00;3.00;;;;;23.85;41.34;100614.25;4998334;28;51369;-57
2021/07/30 05:35:20;;;;;;;;;4.00;4.00;;;;;23.84;41.79;100604.28;4997019;28;51060;-57
2021/07/30 05:37:45;;;;;;;;;4.00;4.00;;;;;23.83;41.59;100613.69;4999453;28;51024;-57
2021/07/30 05:40:11;;;;;;;;;4.00;4.00;;;;;23.82;41.66;100614.78;4995550;28;51875;-56
2021/07/30 05:42:36;;;;;;;;;4.00;4.00;;;;;23.82;41.48;100600.94;4995633;28;51098;-58
2021/07/30 05:45:02;;;;;;;;;5.50;4.50;;;;;23.78;41.29;100610.84;4998791;28;51178;-57
2021/07/30 05:47:27;;;;;;;;;5.75;4.75;;;;;23.68;42.09;100599.59;4996436;28;51266;-58
2021/07/30 05:49:53;;;;;;;;;4.00;4.00;;;;;23.59;41.70;100599.16;4995817;28;52362;-57
2021/07/30 05:52:18;;;;;;;;;6.75;3.75;;;;;23.37;41.87;100604.53;4997141;28;50991;-58
2021/07/30 05:54:43;;;;;;;;;4.00;4.00;;;;;23.16;41.81;100600.53;4998346;28;51103;-57
2021/07/30 05:57:09;;;;;;;;;6.25;5.25;;;;;22.99;42.10;100607.91;4997173;28;51165;-58
2021/07/30 05:59:34;;;;;;;;;6.00;6.00;;;;;22.85;42.81;100601.84;4996823;28;51653;-58
2021/07/30 06:02:00;;;;;;;;;4.00;3.50;;;;;22.70;42.94;100601.44;4993150;28;51115;-58
2021/07/30 06:04:25;;;;;;;;;6.50;6.00;;;;;22.63;42.79;100600.78;4990738;28;51088;-58
2021/07/30 06:06:50;;;;;;;;;5.00;3.00;;;;;22.57;43.74;100588.75;4994236;28;51065;-57
2021/07/30 06:09:15;;;;;;;;;3.00;3.00;;;;;22.51;43.85;100588.88;4994239;28;52009;-58
2021/07/30 06:11:41;;;;;;;;;4.50;4.00;;;;;22.42;44.22;100588.44;4999053;28;51121;-56
2021/07/30 06:14:06;;;;;;;;;4.25;3.00;;;;;22.29;44.78;100589.50;5001410;28;51141;-56
2021/07/30 06:16:31;;;;;;;;;6.00;5.50;;;;;22.19;44.78;100592.00;5003791;28;51099;-57
2021/07/30 06:18:57;;;;;;;;;8.50;3.00;;;;;22.16;45.45;100582.31;4996144;28;51787;-55
2021/07/30 06:21:22;;;;;;;;;5.00;4.50;;;;;22.18;45.94;100574.63;4989595;28;51433;-57
2021/07/30 06:23:47;;;;;;;;;6.25;5.75;;;;;22.21;46.01;100584.38;4996519;28;51312;-56
2021/07/30 06:26:13;;;;;;;;;4.25;4.25;;;;;22.19;46.16;100578.22;4997315;28;52524;-55
2021/07/30 06:28:39;;;;;;;;;6.00;5.00;;;;;22.30;46.39;100585.69;4995967;28;51134;-56
2021/07/30 06:31:04;;;;;;;;;4.25;3.00;;;;;22.40;46.72;100579.53;4996036;28;51373;-56
2021/07/30 06:33:29;;;;;;;;;3.50;3.00;;;;;22.49;46.31;100583.59;4994603;28;50897;-58
2021/07/30 06:35:56;;;;;;;;;5.50;4.75;;;;;22.56;45.87;100586.25;4993082;28;51145;-56
2021/07/30 06:38:22;;;;;;;;;5.75;4.75;;;;;22.61;45.81;100575.31;4987938;28;51170;-57
2021/07/30 06:40:47;;;;;;;;;5.00;3.25;;;;;22.69;45.55;100575.78;4995833;28;51468;-59
2021/07/30 06:43:13;;;;;;;;;5.25;5.25;;;;;22.77;46.15;100561.59;4992250;28;51190;-57
2021/07/30 06:45:39;;;;;;;;;7.50;3.25;;;;;22.85;45.56;100574.22;4996050;28;51428;-56
2021/07/30 06:48:05;;;;;;;;;5.50;4.25;;;;;22.91;45.54;100564.09;4992837;28;52640;-59
2021/07/30 06:50:30;;;;;;;;;4.50;4.50;;;;;22.96;45.45;100558.69;4986577;28;51044;-55
2021/07/30 06:52:55;;;;;;;;;3.25;3.25;;;;;23.00;45.46;100563.47;4992926;28;51312;-53
2021/07/30 06:55:21;;;;;;;;;4.25;3.50;;;;;23.04;45.05;100561.06;4993864;28;51031;-52
2021/07/30 06:57:46;;;;;;;;;4.75;4.25;;;;;23.08;44.79;100569.69;4995077;28;51092;-51
2021/07/30 07:00:13;;;;;;;;;3.00;3.00;;;;;;;;4995312;28;51130;-52
2021/07/30 07:02:38;;;;;;;;;6.00;5.25;;;;;23.11;44.84;100572.78;4995807;28;51145;-52
2021/07/30 07:05:04;;;;;;;;;5.00;4.00;;;;;23.12;44.99;100568.94;4994903;28;51478;-51
2021/07/30 07:07:29;;;;;;;;;7.25;3.00;;;;;;;;4994797;28;51450;-53
2021/07/30 07:09:54;;;;;;;;;4.00;3.00;;;;;23.07;45.37;100571.63;4994993;28;51171;-54
2021/07/30 07:12:20;;;;;;;;;6.00;3.75;;;;;23.08;45.29;100573.28;4994950;28;51102;-52
2021/07/30 07:14:45;;;;;;;;;4.00;4.00;;;;;;;;4995249;28;51128;-50
2021/07/30 07:17:10;;;;;;;;;4.67;4.33;;;;;;;;4994176;28;51691;-51
2021/07/30 07:19:35;;;;;;;;;6.67;5.00;;;;;23.07;44.88;100577.13;4994320;28;51131;-53
2021/07/30 07:22:01;;;;;;;;;5.00;3.25;;;;;23.04;45.64;100561.06;4994633;28;51217;-52
2021/07/30 07:24:26;;;;;;;;;4.00;4.00;;;;;23.04;45.16;100569.34;4995252;28;51110;-53
2021/07/30 07:26:52;;;;;;;;;6.00;5.00;;;;;23.04;45.79;100564.66;4994224;28;51831;-53
2021/07/30 07:29:17;;;;;;;;;5.00;5.00;;;;;23.06;46.00;100566.34;4996198;28;50976;-51
2021/07/30 07:31:45;;;;;;;;;7.00;5.00;;;;;23.07;45.96;100555.03;4994845;28;51629;-54
2021/07/30 07:34:11;;;;;;;;;5.00;5.00;;;;;23.06;46.08;100566.34;4994004;28;51190;-54
2021/07/30 07:36:36;;;;;;;;;4.75;4.75;;;;;23.06;45.75;100566.34;4994314;28;51950;-53
2021/07/30 07:39:02;;;;;;;;;3.00;3.00;;;;;23.08;45.96;100556.72;4994430;28;51055;-56
2021/07/30 07:41:27;;;;;;;;;4.75;4.00;;;;;23.13;46.40;100569.78;4993794;28;51107;-54
2021/07/30 07:43:52;;;;;;;;;7.50;6.00;;;;;23.17;46.01;100573.75;4994859;28;51179;-55
2021/07/30 07:46:18;;;;;;;;;4.50;4.50;;;;;23.17;46.02;100574.56;4993950;28;51848;-54
2021/07/30 07:48:43;;;;;;;;;5.00;4.50;;;;;23.18;46.61;100573.50;4992962;28;51165;-55
2021/07/30 07:51:08;;;;;;;;;5.25;3.25;;;;;23.21;46.38;100559.16;4994079;28;51167;-58
2021/07/30 07:53:34;;;;;;;;;6.50;5.75;;;;;23.21;46.60;100561.94;4994197;28;51114;-55
2021/07/30 07:56:04;;;;;;;;;3.25;3.00;;;;;23.20;46.93;100559.41;4993956;28;51160;-54
2021/07/30 07:58:30;;;;;;;;;6.00;5.00;;;;;23.20;46.88;100553.91;4994084;28;51350;-52
2021/07/30 08:00:55;;;;;;;;;6.00;6.00;;;;;23.19;47.44;100555.81;4994415;28;51060;-50
2021/07/30 08:03:21;;;;;;;;;9.25;6.50;;;;;23.22;47.34;100549.78;4993955;28;51396;-53
2021/07/30 08:05:46;;;;;;;;;4.00;4.00;;;;;23.24;47.56;100550.41;4994458;28;51151;-54
2021/07/30 08:08:11;;;;;;;;;8.00;6.25;;;;;23.28;47.54;100547.97;5014224;28;51007;-56
2021/07/30 08:10:37;;;;;;;;;6.25;5.50;;;;;23.28;47.46;100531.41;4994819;28;51351;-55
2021/07/30 08:13:02;;;;;;;;;4.50;4.50;;;;;23.29;47.29;100530.31;4994241;28;51287;-55
2021/07/30 08:15:28;;;;;;;;;6.00;4.75;;;;;23.30;47.32;100530.06;4993884;28;51986;-56
2021/07/30 08:17:53;;;;;;;;;6.25;5.00;;;;;23.32;47.22;100532.56;4992036;28;51250;-55
2021/07/30 08:20:18;;;;;;;;;7.25;3.50;;;;;23.33;47.58;100534.22;4987679;28;51165;-55
2021/07/30 08:22:44;;;;;;;;;8.00;6.00;;;;;23.37;47.55;100535.44;4990206;28;51379;-59
2021/07/30 08:25:12;;;;;;;;;3.25;3.00;;;;;23.42;47.61;100549.31;4987542;28;51155;-58
2021/07/30 08:27:38;;;;;;;;;4.00;3.25;;;;;23.46;47.55;100539.47;4992175;28;51173;-60
2021/07/30 08:30:04;;;;;;;;;3.00;2.50;;;;;23.50;48.10;100535.09;4990894;28;51689;-59
2021/07/30 08:32:29;;;;;;;;;2.25;2.25;;;;;23.56;47.92;100536.88;4988784;28;51249;-59
2021/07/30 08:34:54;;;;;;;;;4.25;4.25;;;;;23.61;48.12;100533.38;4989741;28;53692;-59
2021/07/30 08:37:19;;;;;;;;;5.25;5.25;;;;;23.65;47.85;100528.19;4989882;28;51071;-59
2021/07/30 08:39:45;;;;;;;;;4.75;4.75;;;;;23.68;47.51;100536.84;4994273;28;51290;-59
2021/07/30 08:42:12;;;;;;;;;5.00;3.25;;;;;23.72;47.64;100539.94;4994898;28;51285;-58
2021/07/30 08:44:38;;;;;;;;;5.75;4.00;;;;;23.75;47.54;100539.41;4992013;28;51210;-58
2021/07/30 08:47:04;;;;;;;;;4.00;4.00;;;;;23.77;47.67;100540.03;4991553;28;52651;-58
2021/07/30 08:49:33;;;;;;;;;4.00;3.50;;;;;23.81;47.49;100542.03;4990448;28;51133;-58
2021/07/30 08:52:20;;;;;;;;;6.00;5.00;;;;;23.84;47.41;100540.66;4993100;28;51503;-58
2021/07/30 08:54:51;;;;;;;;;4.00;4.00;;;;;23.87;47.42;100549.31;4994060;28;52824;-59
2021/07/30 08:57:17;;;;;;;;;4.00;4.00;;;;;23.91;47.35;100535.81;4995823;28;51241;-58
2021/07/30 08:59:42;;;;;;;;;3.00;3.00;;;;;23.94;47.03;100534.47;4993256;28;51117;-57
2021/07/30 09:02:08;;;;;;;;;6.50;5.00;;;;;23.95;47.55;100527.84;4985047;28;50965;-59
2021/07/30 09:04:35;;;;;;;;;5.50;4.00;;;;;23.96;47.09;100527.56;4988674;28;51946;-58
2021/07/30 09:07:02;;;;;;;;;4.25;2.00;;;;;23.98;47.41;100522.66;4989835;28;51450;-59
2021/07/30 09:09:29;;;;;;;;;4.00;4.00;;;;;24.00;47.42;100531.53;4994819;28;51075;-59
2021/07/30 09:11:57;;;;;;;;;4.75;4.50;;;;;24.03;47.29;100532.94;4994551;28;51503;-59
2021/07/30 09:14:34;;;;;;;;;3.50;2.75;;;;;24.06;47.35;100530.50;4995494;28;51910;-59
2021/07/30 09:17:00;;;;;;;;;3.50;3.50;;;;;24.09;47.50;100531.94;4994539;28;51201;-59
2021/07/30 09:19:26;;;;;;;;;6.00;3.00;;;;;24.11;47.56;100525.06;4994950;28;51386;-58
2021/07/30 09:22:11;;;;;;;;;4.00;3.25;;;;;24.13;47.41;100528.41;4994569;28;51055;-59
2021/07/30 09:24:39;;;;;;;;;3.00;2.00;;;;;24.16;47.29;100527.06;4993576;28;51179;-58
2021/07/30 09:27:07;;;;;;;;;4.00;4.00;;;;;24.19;46.96;100526.56;4988101;28;51386;-58
2021/07/30 09:29:33;;;;;;;;;5.00;3.75;;;;;24.21;47.11;100524.38;4992717;28;51356;-59
2021/07/30 09:32:13;;;;;;;;;6.00;3.50;;;;;24.22;47.44;100533.50;4993701;28;51213;-58
2021/07/30 09:34:47;;;;;;;;;4.00;4.00;;;;;24.24;47.88;100528.56;4989340;28;51742;-58
2021/07/30 09:37:17;;;;;;;;;6.00;4.00;;;;;24.25;47.76;100533.81;4987300;28;51506;-58
2021/07/30 09:39:47;;;;;;;;;3.75;3.75;;;;;24.27;47.39;100525.25;4993812;28;51388;-58
2021/07/30 09:42:21;;;;;;;;;3.25;3.25;;;;;24.28;47.51;100521.41;4991848;28;51226;-59
2021/07/30 09:45:00;;;;;;;;;4.50;3.75;;;;;24.30;47.74;100522.84;4991495;28;52318;-58
2021/07/30 09:47:28;;;;;;;;;7.25;5.25;;;;;24.31;47.58;100527.31;4994867;28;51079;-58
2021/07/30 09:50:03;;;;;;;;;4.00;4.00;;;;;24.32;47.64;100522.63;4994126;28;51302;-58
2021/07/30 09:52:41;;;;;;;;;3.00;3.00;;;;;24.34;47.74;100523.19;4993668;28;51487;-58
2021/07/30 09:55:08;;;;;;;;;3.00;2.25;;;;;24.34;47.86;100515.72;4994750;28;51797;-61
2021/07/30 09:57:35;;;;;;;;;3.25;3.25;;;;;24.36;47.52;100524.59;4992428;28;51360;-58
2021/07/30 10:00:03;;;;;;;;;3.50;3.25;;;;;24.39;47.50;100518.59;4992818;28;51177;-59
2021/07/30 10:02:30;;;;;;;;;4.75;4.00;;;;;24.40;47.73;100509.19;4991228;28;51328;-58
2021/07/30 10:04:56;;;;;;;;;2.50;2.00;;;;;24.42;47.46;100518.06;4993876;28;52143;-58
2021/07/30 10:07:24;;;;;;;;;3.00;2.50;;;;;24.43;47.63;100505.88;4989528;28;51217;-57
2021/07/30 10:10:15;;;;;;;;;4.25;3.00;;;;;24.45;47.50;100513.94;4990888;28;51107;-57
2021/07/30 10:12:47;;;;;;;;;4.50;3.00;;;;;24.46;47.65;100513.66;4989069;28;51926;-58
2021/07/30 10:15:12;;;;;;;;;4.00;4.00;;;;;24.48;47.73;100505.94;4994567;28;51207;-58
2021/07/30 10:17:46;;;;;;;;;3.00;3.00;;;;;24.51;47.45;100521.22;4992277;28;51142;-58
2021/07/30 10:20:14;;;;;;;;;7.00;4.00;;;;;24.52;47.34;100511.81;4988103;28;51296;-58
2021/07/30 10:23:00;;;;;;;;;5.75;3.00;;;;;24.53;47.35;100519.03;4992520;28;51957;-58
2021/07/30 10:25:32;;;;;;;;;3.00;3.00;;;;;24.54;47.34;100508.78;4993057;28;51121;-58
2021/07/30 10:28:05;;;;;;;;;3.25;3.25;;;;;24.55;47.22;100502.16;4992919;28;51230;-58
2021/07/30 10:30:52;;;;;;;;;4.00;4.00;;;;;24.58;46.75;100496.91;4994425;28;51324;-58
2021/07/30 10:33:37;;;;;;;;;4.25;4.25;;;;;24.60;46.37;100500.28;4991103;28;51238;-58
2021/07/30 10:36:15;;;;;;;;;4.00;4.00;;;;;24.62;46.30;100509.19;4991225;28;51901;-57
2021/07/30 10:38:41;;;;;;;;;1.25;1.00;;;;;24.64;45.84;100495.91;4986732;28;51292;-57
2021/07/30 10:41:07;;;;;;;;;2.00;2.00;;;;;24.66;45.89;100493.72;4992077;28;51173;-58
2021/07/30 10:44:02;;;;;;;;;4.00;3.75;;;;;24.68;45.91;100496.22;4992892;28;51062;-58
2021/07/30 10:46:28;;;;;;;;;1.75;1.75;;;;;24.68;45.62;100498.97;4991789;28;51827;-58
2021/07/30 10:48:54;;;;;;;;;2.00;2.00;;;;;24.69;45.90;100493.19;4989616;28;51418;-58
2021/07/30 10:53:49;;;;;;;;;5.25;3.50;;;;;24.71;45.46;100506.78;4989827;28;51778;-58
2021/07/30 10:56:14;;;;;;;;;4.75;3.25;;;;;24.72;45.56;100502.94;4986461;28;51811;-58
2021/07/30 10:58:40;;;;;;;;;2.25;2.25;;;;;24.72;45.72;100511.22;4991701;28;51391;-58
2021/07/30 11:01:06;;;;;;;;;4.00;4.00;;;;;24.74;45.42;100500.72;4981865;28;52184;-59
2021/07/30 11:03:52;;;;;;;;;4.00;4.00;;;;;24.76;45.47;100507.69;4993586;28;51408;-57
2021/07/30 11:06:36;;;;;;;;;3.25;3.25;;;;;24.77;45.39;100505.75;4973897;28;51789;-58
2021/07/30 11:09:04;;;;;;;;;5.25;2.75;;;;;24.77;45.57;100511.28;4988445;28;51461;-58
2021/07/30 11:11:44;;;;;;;;;4.75;3.00;;;;;24.78;45.08;100493.56;4991911;28;51149;-58
2021/07/30 11:14:14;;;;;;;;;3.00;3.00;;;;;24.79;45.31;100503.53;4992600;28;51479;-58
2021/07/30 11:16:45;;;;;;;;;3.50;3.50;;;;;24.80;44.79;100499.66;4989169;28;51179;-58
2021/07/30 11:19:12;;;;;;;;;3.00;2.25;;;;;24.83;44.50;100498.34;4991801;28;51341;-58
2021/07/30 11:21:37;;;;;;;;;4.50;4.25;;;;;24.83;44.24;100495.56;4991787;28;51003;-58
2021/07/30 11:24:04;;;;;;;;;2.00;1.00;;;;;24.84;43.93;100514.69;4989865;28;51119;-58
2021/07/30 11:26:31;;;;;;;;;3.00;3.00;;;;;24.85;43.46;100502.53;4990194;28;51073;-58
2021/07/30 11:29:08;;;;;;;;;3.75;2.25;;;;;24.85;42.54;100508.06;4991016;28;51076;-59
2021/07/30 11:31:37;;;;;;;;;1.00;1.00;;;;;24.86;41.86;100506.13;4990431;28;51191;-59